Time;durP1;ratioP1;P1;durP2;ratioP2;P2;SDS_P1;SDS_P2;PMS_P1;PMS_P2;Temp;Humidity;BMP_temperature;BMP_pressure;BME280_temperature;BME280_humidity;BME280_pressure;Samples;Min_cycle;Max_cycle;Signal;HPM_P1;HPM_P2
2022/10/23 00:02:01;;;;;;;13.77;6.50;;;;;;;12.18;100.00;101315.63;5093597;28;20077;-50
2022/10/23 00:04:27;;;;;;;15.77;6.80;;;;;;;12.18;100.00;101320.97;5093585;28;20028;-51
2022/10/23 00:06:52;;;;;;;13.25;5.95;;;;;;;12.18;100.00;101312.13;5082183;28;20024;-51
2022/10/23 00:09:23;;;;;;;13.10;6.35;;;;;;;12.16;100.00;101306.91;5085424;28;20460;-49
2022/10/23 00:11:49;;;;;;;16.60;6.00;;;;;;;12.17;100.00;101310.41;5086658;28;20408;-51
2022/10/23 00:14:17;;;;;;;14.60;6.38;;;;;;;12.17;100.00;101310.41;5088026;28;20094;-50
2022/10/23 00:16:43;;;;;;;16.00;6.82;;;;;;;12.17;100.00;101315.75;5084227;28;20542;-51
2022/10/23 00:19:08;;;;;;;14.20;6.78;;;;;;;12.16;100.00;101306.06;5058298;28;20028;-50
2022/10/23 00:21:33;;;;;;;13.25;6.32;;;;;;;12.15;100.00;101310.53;5083667;28;20471;-51
2022/10/23 00:23:59;;;;;;;15.70;6.60;;;;;;;12.14;100.00;101316.84;5081239;28;20032;-51
2022/10/23 00:26:24;;;;;;;13.00;5.88;;;;;;;12.14;100.00;101306.19;5090210;28;20016;-49
2022/10/23 00:28:51;;;;;;;11.77;5.85;;;;;;;12.13;100.00;101312.47;5092690;28;20076;-51
2022/10/23 00:31:18;;;;;;;11.15;6.05;;;;;;;12.12;100.00;101310.75;5092239;28;20491;-50
2022/10/23 00:33:44;;;;;;;15.38;6.43;;;;;;;12.12;100.00;101305.44;5089673;28;20386;-51
2022/10/23 00:36:12;;;;;;;12.18;6.00;;;;;;;12.13;100.00;101303.63;5078286;28;20032;-50
2022/10/23 00:38:37;;;;;;;13.57;6.35;;;;;;;12.14;100.00;101307.97;5080107;28;20027;-51
2022/10/23 00:41:04;;;;;;;10.70;5.20;;;;;;;12.11;100.00;101301.09;5084381;28;20106;-50
2022/10/23 00:43:30;;;;;;;12.80;5.72;;;;;;;12.14;100.00;101300.00;5084361;28;20020;-50
2022/10/23 00:45:56;;;;;;;12.40;5.93;;;;;;;12.13;100.00;101301.81;5093499;28;20028;-49
2022/10/23 00:50:50;;;;;;;11.75;5.95;;;;;;;12.14;100.00;101297.34;5065635;28;20402;-51
2022/10/23 00:53:17;;;;;;;12.82;6.00;;;;;;;12.10;100.00;101299.38;5071607;28;20028;-51
2022/10/23 00:55:45;;;;;;;14.57;5.85;;;;;;;12.12;100.00;101297.44;5072668;28;20475;-53
2022/10/23 00:58:12;;;;;;;13.75;5.85;;;;;;;12.11;100.00;101294.94;5072901;28;20482;-51
2022/10/23 01:00:47;;;;;;;10.40;5.93;;;;;;;12.10;100.00;101296.72;5085731;28;20433;-53
2022/10/23 01:03:15;;;;;;;13.27;5.93;;;;;;;12.13;100.00;101298.31;5077974;28;20082;-53
2022/10/23 01:05:56;;;;;;;12.20;5.88;;;;;;;12.09;100.00;101280.84;5076622;28;20086;-52
2022/10/23 01:08:33;;;;;;;14.25;5.78;;;;;;;12.14;100.00;101286.69;5072793;28;20029;-51
2022/10/23 01:11:23;;;;;;;13.50;6.13;;;;;;;12.15;100.00;101291.06;5072398;28;20452;-50
2022/10/23 01:14:22;;;;;;;11.40;6.15;;;;;;;12.13;100.00;101287.66;5069631;28;20028;-49
2022/10/23 01:17:12;;;;;;;11.52;5.97;;;;;;;12.14;100.00;101282.22;5072837;28;20025;-52
2022/10/23 01:19:54;;;;;;;14.25;5.93;;;;;;;12.09;100.00;101270.22;5073148;28;20039;-50
2022/10/23 01:22:41;;;;;;;13.35;5.70;;;;;;;12.15;100.00;101289.22;5072663;28;20033;-49
2022/10/23 01:25:15;;;;;;;15.20;5.70;;;;;;;12.14;100.00;101281.34;5066726;28;20070;-49
2022/10/23 01:27:44;;;;;;;13.88;6.00;;;;;;;12.11;100.00;101282.44;5072379;28;20078;-49
2022/10/23 01:30:15;;;;;;;12.45;5.85;;;;;;;12.10;100.00;101267.44;5072355;28;20048;-50
2022/10/23 01:32:49;;;;;;;13.15;5.93;;;;;;;12.09;100.00;101270.22;5072382;28;20024;-50
2022/10/23 01:35:23;;;;;;;18.05;6.22;;;;;;;12.07;100.00;101265.00;5071678;28;20040;-51
2022/10/23 01:37:54;;;;;;;14.40;6.15;;;;;;;12.06;100.00;101262.44;5071959;28;20112;-49
2022/10/23 01:40:25;;;;;;;17.60;6.63;;;;;;;12.05;100.00;101266.94;5080113;28;20468;-50
2022/10/23 01:42:58;;;;;;;15.07;6.50;;;;;;;12.07;100.00;101261.50;5070687;28;20028;-52
2022/10/23 01:45:52;;;;;;;11.18;5.97;;;;;;;12.08;100.00;101244.56;5082063;28;20028;-52
2022/10/23 01:48:24;;;;;;;13.60;5.53;;;;;;;12.05;100.00;101244.81;5068203;28;20432;-50
2022/10/23 01:50:52;;;;;;;14.10;6.30;;;;;;;12.03;100.00;101247.56;5052083;28;20167;-49
2022/10/23 01:53:19;;;;;;;13.80;6.03;;;;;;;12.05;100.00;101247.47;5052341;28;20049;-49
2022/10/23 01:55:46;;;;;;;11.73;5.47;;;;;;;12.02;100.00;101241.41;5052905;28;20052;-52
2022/10/23 01:58:15;;;;;;;13.63;5.50;;;;;;;12.03;100.00;101248.41;5050304;28;20383;-52
2022/10/23 02:00:43;;;;;;;16.08;5.82;;;;;;;12.01;100.00;101238.88;5046208;28;20036;-51
2022/10/23 02:03:11;;;;;;;13.25;5.88;;;;;;;11.97;100.00;101240.91;5053701;28;20107;-52
2022/10/23 02:05:38;;;;;;;10.65;5.40;;;;;;;11.99;100.00;101244.31;5048618;28;20036;-52
2022/10/23 02:08:04;;;;;;;17.85;5.70;;;;;;;12.00;100.00;101250.47;5051782;28;20494;-52
2022/10/23 02:10:40;;;;;;;10.73;5.45;;;;;;;11.97;100.00;101238.25;5049732;28;20040;-49
2022/10/23 02:13:16;;;;;;;16.63;6.30;;;;;;;11.96;100.00;101239.22;5046061;28;20136;-48
2022/10/23 02:15:49;;;;;;;14.55;6.18;;;;;;;11.94;100.00;101238.50;5050462;28;20296;-52
2022/10/23 02:18:23;;;;;;;15.10;6.32;;;;;;;11.95;100.00;101237.50;5051965;28;20474;-50
2022/10/23 02:20:59;;;;;;;12.73;6.60;;;;;;;11.94;100.00;101246.47;5052613;28;20534;-51
2022/10/23 02:23:39;;;;;;;13.23;6.03;;;;;;;11.92;100.00;101229.75;5051662;28;20021;-49
2022/10/23 02:26:13;;;;;;;13.45;6.10;;;;;;;11.89;100.00;101237.09;5052649;28;20060;-51
2022/10/23 02:28:45;;;;;;;12.88;5.90;;;;;;;11.89;100.00;101243.28;5050490;28;20392;-53
2022/10/23 02:31:14;;;;;;;12.50;6.13;;;;;;;11.90;100.00;101228.16;5052374;28;20033;-50
2022/10/23 02:33:40;;;;;;;12.57;6.13;;;;;;;11.89;100.00;101221.97;5052921;28;20021;-52
2022/10/23 02:36:06;;;;;;;13.25;6.15;;;;;;;11.89;100.00;101221.97;5052613;28;20029;-54
2022/10/23 02:38:40;;;;;;;15.57;6.70;;;;;;;11.86;100.00;101214.22;5053459;28;20040;-53
2022/10/23 02:41:16;;;;;;;11.68;6.18;;;;;;;11.87;100.00;101207.91;5053271;28;20029;-50
2022/10/23 02:43:56;;;;;;;13.93;6.50;;;;;;;11.87;100.00;101196.44;5052736;28;20025;-52
2022/10/23 02:46:28;;;;;;;14.75;6.40;;;;;;;11.85;100.00;101177.91;5052809;28;20063;-53
2022/10/23 02:49:10;;;;;;;12.10;6.88;;;;;;;11.84;100.00;101173.59;5053300;28;20041;-52
2022/10/23 02:52:01;;;;;;;14.65;6.75;;;;;;;11.84;100.00;101163.78;5052771;28;20033;-52
2022/10/23 02:54:32;;;;;;;14.20;6.75;;;;;;;11.84;100.00;101165.59;5051910;28;20072;-52
2022/10/23 02:57:14;;;;;;;11.45;6.18;;;;;;;11.83;100.00;101158.56;5053161;28;20032;-51
2022/10/23 02:59:50;;;;;;;15.95;6.75;;;;;;;11.82;100.00;101152.41;5052540;28;20039;-52
2022/10/23 03:02:25;;;;;;;12.55;6.65;;;;;;;11.87;100.00;101153.84;5052972;28;20029;-50
2022/10/23 03:04:53;;;;;;;13.25;6.18;;;;;;;11.84;100.00;101154.94;5053170;28;20055;-50
2022/10/23 03:07:19;;;;;;;12.45;6.47;;;;;;;11.85;100.00;101151.31;5056058;28;20037;-52
2022/10/23 03:09:45;;;;;;;17.80;6.88;;;;;;;11.84;100.00;101145.16;5054849;28;20442;-50
2022/10/23 03:12:10;;;;;;;13.68;7.03;;;;;;;11.85;100.00;101143.31;5055646;28;20056;-52
2022/10/23 03:14:36;;;;;;;13.43;6.72;;;;;;;11.84;100.00;101141.66;5056546;28;20028;-51
2022/10/23 03:17:01;;;;;;;10.93;6.47;;;;;;;11.83;100.00;101142.59;5054074;28;20033;-52
2022/10/23 03:19:26;;;;;;;12.05;6.28;;;;;;;11.83;100.00;101132.78;5052266;28;20029;-51
2022/10/23 03:21:52;;;;;;;16.42;6.68;;;;;;;11.84;100.00;101125.69;5054568;28;20108;-50
2022/10/23 03:24:17;;;;;;;21.05;7.00;;;;;;;11.83;100.00;101126.63;5054692;28;20442;-49
2022/10/23 03:26:42;;;;;;;11.18;6.72;;;;;;;11.82;100.00;101132.91;5054421;28;20031;-50
2022/10/23 03:29:07;;;;;;;12.90;6.35;;;;;;;11.83;100.00;101131.94;5055637;28;20239;-53
2022/10/23 03:31:33;;;;;;;15.52;6.53;;;;;;;11.80;100.00;101122.38;5055337;28;20021;-52
2022/10/23 03:33:58;;;;;;;14.65;7.15;;;;;;;11.83;100.00;101131.94;5056194;28;20047;-54
2022/10/23 03:36:23;;;;;;;19.17;7.22;;;;;;;11.82;100.00;101115.16;5055393;28;20037;-52
2022/10/23 03:38:49;;;;;;;13.40;6.32;;;;;;;11.82;100.00;101120.47;5056063;28;20471;-53
2022/10/23 03:41:14;;;;;;;14.35;7.35;;;;;;;11.84;100.00;101109.72;5054919;28;20033;-51
2022/10/23 03:43:39;;;;;;;16.60;7.40;;;;;;;11.86;100.00;101110.44;5056688;28;20025;-51
2022/10/23 03:46:08;;;;;;;12.43;6.95;;;;;;;11.84;100.00;101105.22;5055538;28;20131;-52
2022/10/23 03:48:36;;;;;;;12.93;6.60;;;;;;;11.87;100.00;101104.13;5055266;28;20025;-52
2022/10/23 03:51:02;;;;;;;13.85;7.03;;;;;;;11.87;100.00;101101.47;5053131;28;20092;-50
2022/10/23 03:53:28;;;;;;;12.25;6.53;;;;;;;11.85;100.00;101098.91;5057538;28;20505;-51
2022/10/23 03:55:53;;;;;;;12.40;7.30;;;;;;;11.86;100.00;101099.78;5050456;28;20026;-51
2022/10/23 03:58:18;;;;;;;20.02;7.20;;;;;;;11.87;100.00;101092.63;5052449;28;20070;-52
2022/10/23 04:00:43;;;;;;;15.93;7.53;;;;;;;11.86;100.00;101091.81;5055993;28;20040;-52
2022/10/23 04:03:09;;;;;;;13.43;7.72;;;;;;;11.87;100.00;101080.16;5053879;28;20029;-50
2022/10/23 04:05:34;;;;;;;10.27;6.60;;;;;;;11.85;100.00;101076.78;5053726;28;20112;-51
2022/10/23 04:08:00;;;;;;;16.15;7.53;;;;;;;11.88;100.00;101068.56;5054510;28;20021;-51
2022/10/23 04:10:26;;;;;;;13.80;7.13;;;;;;;11.88;100.00;101059.75;5053223;28;20032;-51
2022/10/23 04:12:51;;;;;;;14.48;6.55;;;;;;;11.90;100.00;101057.81;5053564;28;20033;-51
2022/10/23 04:15:16;;;;;;;11.45;7.25;;;;;;;11.90;100.00;101061.31;5054098;28;20024;-50
2022/10/23 04:17:42;;;;;;;16.02;6.85;;;;;;;11.90;100.00;101057.81;5057564;28;20489;-53
2022/10/23 04:20:07;;;;;;;11.90;6.40;;;;;;;11.90;100.00;101060.47;5050662;28;20033;-51
2022/10/23 04:22:33;;;;;;;12.05;6.13;;;;;;;11.89;100.00;101066.75;5053038;28;20025;-50
2022/10/23 04:24:58;;;;;;;14.27;6.75;;;;;;;11.90;100.00;101071.94;5053471;28;20029;-50
2022/10/23 04:27:23;;;;;;;12.73;6.70;;;;;;;11.90;100.00;101069.28;5035381;28;20589;-53
2022/10/23 04:29:48;;;;;;;15.32;6.95;;;;;;;11.91;100.00;101075.47;5053178;28;20083;-53
2022/10/23 04:32:14;;;;;;;12.27;7.13;;;;;;;11.92;100.00;101069.19;5035697;28;20025;-50
2022/10/23 04:34:39;;;;;;;14.95;6.80;;;;;;;11.91;100.00;101065.69;5053109;28;20039;-51
2022/10/23 04:37:04;;;;;;;12.38;6.63;;;;;;;11.89;100.00;101072.94;5053394;28;20041;-50
2022/10/23 04:39:30;;;;;;;12.88;6.80;;;;;;;11.91;100.00;101065.69;5054118;28;20702;-52
2022/10/23 04:41:55;;;;;;;10.95;6.70;;;;;;;11.91;100.00;101060.38;5053655;28;20056;-50
2022/10/23 04:44:20;;;;;;;12.63;6.30;;;;;;;11.92;100.00;101058.56;5053349;28;20025;-53
2022/10/23 04:46:45;;;;;;;15.25;6.90;;;;;;;11.92;100.00;101059.38;5054288;28;20463;-50
2022/10/23 04:49:10;;;;;;;12.30;6.53;;;;;;;11.94;100.00;101054.81;5053817;28;20052;-51
2022/10/23 04:51:37;;;;;;;10.38;6.93;;;;;;;11.94;100.00;101056.59;5052445;28;20025;-52
2022/10/23 04:54:02;;;;;;;11.68;6.82;;;;;;;11.94;100.00;101054.81;5053339;28;20051;-52
2022/10/23 04:56:28;;;;;;;11.02;6.10;;;;;;;11.95;100.00;101050.31;5036227;28;20025;-50
2022/10/23 04:58:53;;;;;;;13.75;6.68;;;;;;;11.95;100.00;101050.31;5054014;28;20028;-50
2022/10/23 05:01:19;;;;;;;11.98;6.53;;;;;;;11.94;100.00;101052.16;5053423;28;20612;-52
2022/10/23 05:03:44;;;;;;;13.77;6.57;;;;;;;11.95;100.00;101042.34;5054689;28;20025;-50
2022/10/23 05:06:09;;;;;;;13.07;6.95;;;;;;;11.95;100.00;101045.84;5052987;28;20112;-51
2022/10/23 05:08:34;;;;;;;10.35;6.72;;;;;;;11.95;100.00;101045.00;5052532;28;20470;-51
2022/10/23 05:11:00;;;;;;;12.70;8.07;;;;;;;11.97;100.00;101048.38;5054599;28;20032;-52
2022/10/23 05:13:25;;;;;;;12.07;6.72;;;;;;;11.97;100.00;101038.59;5052780;28;20021;-51
2022/10/23 05:15:52;;;;;;;10.65;6.93;;;;;;;11.97;100.00;101043.06;5054804;28;20021;-51
2022/10/23 05:18:27;;;;;;;13.68;7.07;;;;;;;11.96;100.00;101039.56;5053433;28;20021;-50
2022/10/23 05:20:58;;;;;;;12.00;6.50;;;;;;;11.96;100.00;101028.06;5053625;28;20112;-49
2022/10/23 05:23:25;;;;;;;11.80;6.95;;;;;;;11.98;100.00;101024.31;5041323;28;20398;-50
2022/10/23 05:25:50;;;;;;;14.85;6.75;;;;;;;12.00;100.00;101029.50;5052479;28;20486;-51
2022/10/23 05:28:15;;;;;;;17.60;7.20;;;;;;;12.00;100.00;101030.34;5053685;28;20052;-51
2022/10/23 05:30:41;;;;;;;11.90;6.70;;;;;;;12.02;100.00;101024.91;5053872;28;20032;-51
2022/10/23 05:33:08;;;;;;;11.73;7.07;;;;;;;11.96;100.00;101012.94;5053814;28;20112;-50
2022/10/23 05:35:35;;;;;;;12.50;6.82;;;;;;;12.02;100.00;101020.44;5054393;28;20032;-51
2022/10/23 05:38:01;;;;;;;10.85;6.38;;;;;;;12.01;100.00;101024.06;5050948;28;20494;-52
2022/10/23 05:40:26;;;;;;;14.07;6.32;;;;;;;11.99;100.00;101010.03;5054398;28;20036;-51
2022/10/23 05:42:51;;;;;;;11.13;7.22;;;;;;;12.03;100.00;101014.13;5052240;28;20021;-50
2022/10/23 05:45:17;;;;;;;13.32;6.20;;;;;;;12.03;100.00;101018.63;5053229;28;20439;-50
2022/10/23 05:47:44;;;;;;;9.45;6.47;;;;;;;12.03;100.00;101016.78;5052372;28;20502;-52
2022/10/23 05:50:10;;;;;;;9.63;5.97;;;;;;;12.04;100.00;101012.34;5052368;28;20048;-53
2022/10/23 05:52:35;;;;;;;12.52;5.93;;;;;;;12.05;100.00;101011.34;5052411;28;20139;-49
2022/10/23 05:55:00;;;;;;;11.07;6.22;;;;;;;12.04;100.00;101017.66;5053282;28;20037;-49
2022/10/23 05:57:26;;;;;;;12.02;6.18;;;;;;;12.07;100.00;101008.56;5048734;28;20029;-50
2022/10/23 05:59:51;;;;;;;9.77;5.85;;;;;;;12.08;100.00;101008.44;5049556;28;20029;-49
2022/10/23 06:02:16;;;;;;;9.52;6.25;;;;;;;12.07;100.00;101000.59;5053385;28;20037;-52
2022/10/23 06:04:41;;;;;;;14.23;6.50;;;;;;;12.07;100.00;101001.41;5054912;28;20029;-52
2022/10/23 06:07:07;;;;;;;12.55;5.88;;;;;;;12.08;100.00;100997.81;5054640;28;20302;-51
2022/10/23 06:09:32;;;;;;;11.25;5.88;;;;;;;12.08;100.00;100997.81;5052666;28;20593;-52
2022/10/23 06:11:57;;;;;;;12.88;6.15;;;;;;;12.10;100.00;101000.34;5055373;28;20032;-51
2022/10/23 06:14:23;;;;;;;13.10;6.10;;;;;;;12.09;100.00;100993.31;5054368;28;20055;-51
2022/10/23 06:16:48;;;;;;;9.10;6.18;;;;;;;12.10;100.00;100989.69;5055314;28;20021;-50
2022/10/23 06:19:13;;;;;;;12.55;6.10;;;;;;;12.09;100.00;100991.50;5051642;28;20029;-50
2022/10/23 06:21:39;;;;;;;12.30;6.05;;;;;;;12.11;100.00;100991.41;5054108;28;20032;-51
2022/10/23 06:24:06;;;;;;;10.80;6.22;;;;;;;12.12;100.00;100983.25;5051523;28;20025;-50
2022/10/23 06:26:31;;;;;;;9.35;6.43;;;;;;;12.13;100.00;100986.78;5033410;28;20021;-49
2022/10/23 06:28:57;;;;;;;12.40;5.90;;;;;;;12.13;100.00;100984.13;5044900;28;20033;-50
2022/10/23 06:31:25;;;;;;;11.63;5.78;;;;;;;12.11;100.00;100981.59;5051319;28;20029;-50
2022/10/23 06:33:51;;;;;;;11.13;5.50;;;;;;;12.14;100.00;100976.00;5046819;28;20039;-53
2022/10/23 06:36:16;;;;;;;9.48;5.68;;;;;;;12.15;100.00;100971.53;5045391;28;20399;-53
2022/10/23 06:38:42;;;;;;;11.85;6.10;;;;;;;12.17;100.00;100965.13;5050564;28;20037;-50
2022/10/23 06:41:13;;;;;;;11.35;5.97;;;;;;;12.19;100.00;100967.63;5052973;28;20406;-53
2022/10/23 06:43:38;;;;;;;9.95;5.72;;;;;;;12.20;100.00;100958.69;5055429;28;20036;-52
2022/10/23 06:46:03;;;;;;;11.30;5.57;;;;;;;12.20;100.00;100951.53;5052327;28;20040;-50
2022/10/23 06:48:29;;;;;;;9.63;5.93;;;;;;;12.23;100.00;100955.78;5052455;28;20438;-52
2022/10/23 06:50:55;;;;;;;8.80;5.40;;;;;;;12.25;100.00;100952.97;5057982;28;20195;-53
2022/10/23 06:53:23;;;;;;;11.65;5.75;;;;;;;12.26;100.00;100946.66;5058807;28;20107;-52
2022/10/23 06:55:48;;;;;;;11.03;5.77;;;;;;;12.30;100.00;100948.13;5054102;28;20064;-52
2022/10/23 06:58:14;;;;;;;10.98;5.75;;;;;;;12.32;100.00;100951.50;5052798;28;20025;-53
2022/10/23 07:00:39;;;;;;;8.73;4.97;;;;;;;12.32;100.00;100946.16;5053659;28;20028;-52
2022/10/23 07:03:04;;;;;;;10.40;6.13;;;;;;;12.35;100.00;100941.44;5051199;28;20026;-53
2022/10/23 07:05:31;;;;;;;7.65;5.32;;;;;;;12.36;100.00;100948.47;5050487;28;20045;-50
2022/10/23 07:07:56;;;;;;;6.68;4.82;;;;;;;12.39;100.00;100958.88;5052589;28;20037;-50
2022/10/23 07:10:22;;;;;;;8.63;4.95;;;;;;;12.43;100.00;100950.63;5056512;28;20041;-50
2022/10/23 07:12:47;;;;;;;10.48;5.47;;;;;;;12.44;100.00;100942.50;5051146;28;20045;-50
2022/10/23 07:15:13;;;;;;;9.98;5.45;;;;;;;12.45;100.00;100944.19;5051605;28;20554;-50
2022/10/23 07:17:39;;;;;;;10.02;4.88;;;;;;;12.49;100.00;100944.78;5052156;28;20158;-52
2022/10/23 07:20:05;;;;;;;8.27;5.03;;;;;;;12.50;100.00;100941.16;5055743;28;20116;-52
2022/10/23 07:22:30;;;;;;;10.57;4.90;;;;;;;12.53;100.00;100941.72;5053319;28;20174;-50
2022/10/23 07:24:55;;;;;;;16.25;5.20;;;;;;;12.57;100.00;100936.97;5033176;28;20124;-50
2022/10/23 07:27:20;;;;;;;9.02;4.97;;;;;;;12.59;100.00;100937.72;5051118;28;20028;-52
2022/10/23 07:29:49;;;;;;;10.20;4.93;;;;;;;12.58;100.00;100920.03;5054165;28;20538;-51
2022/10/23 07:32:14;;;;;;;9.30;4.50;;;;;;;12.67;100.00;100929.06;5053445;28;20032;-51
2022/10/23 07:34:39;;;;;;;11.63;4.57;;;;;;;12.69;100.00;100927.97;5053370;28;20029;-49
2022/10/23 07:37:05;;;;;;;9.80;3.92;;;;;;;12.70;100.00;100931.47;5052395;28;20052;-51
2022/10/23 07:39:30;;;;;;;6.50;4.30;;;;;;;12.73;100.00;100925.91;5048940;28;20039;-49
2022/10/23 07:41:55;;;;;;;9.70;4.50;;;;;;;12.77;100.00;100921.97;5050523;28;20170;-50
2022/10/23 07:44:20;;;;;;;7.05;4.22;;;;;;;12.80;100.00;100923.56;5055683;28;20294;-50
2022/10/23 07:46:46;;;;;;;10.77;5.32;;;;;;;12.83;100.00;100929.47;5051783;28;20049;-51
2022/10/23 07:49:11;;;;;;;11.40;4.30;;;;;;;12.85;100.00;100921.34;5049851;28;20064;-50
2022/10/23 07:51:36;;;;;;;9.90;4.40;;;;;;;12.89;100.00;100920.97;5049934;28;20357;-52
2022/10/23 07:54:02;;;;;;;6.43;3.70;;;;;;;12.92;100.00;100923.38;5049685;28;20029;-51
2022/10/23 07:56:30;;;;;;;10.52;4.45;;;;;;;12.95;100.00;100925.75;5053457;28;20064;-52
2022/10/23 07:58:56;;;;;;;7.05;3.85;;;;;;;12.98;100.00;100924.66;5052469;28;20063;-52
2022/10/23 08:01:37;;;;;;;11.70;3.90;;;;;;;13.04;100.00;100917.94;5052425;28;20037;-51
2022/10/23 08:04:04;;;;;;;7.45;3.85;;;;;;;13.07;100.00;100918.53;5052182;28;20056;-50
2022/10/23 08:06:29;;;;;;;10.98;4.10;;;;;;;13.11;100.00;100909.28;5050853;28;20398;-51
2022/10/23 08:08:54;;;;;;;7.85;4.15;;;;;;;13.15;100.00;100917.88;5052623;28;20024;-51
2022/10/23 08:11:29;;;;;;;9.82;3.92;;;;;;;13.17;100.00;100912.41;5052064;28;20444;-50
2022/10/23 08:13:57;;;;;;;11.27;3.88;;;;;;;13.23;100.00;100911.88;5036729;28;20282;-60
2022/10/23 08:16:23;;;;;;;10.55;4.25;;;;;;;13.28;100.00;100921.16;5061881;28;20020;-52
2022/10/23 08:18:49;;;;;;;7.03;4.05;;;;;;;13.35;100.00;100907.31;5063988;28;20032;-52
2022/10/23 08:21:16;;;;;;;9.90;4.30;;;;;;;13.37;100.00;100910.69;5065488;28;20091;-50
2022/10/23 08:23:42;;;;;;;9.50;4.28;;;;;;;13.41;100.00;100912.13;5064293;28;20025;-49
2022/10/23 08:26:08;;;;;;;10.10;4.25;;;;;;;13.46;100.00;100904.56;5059374;28;20027;-50
2022/10/23 08:28:34;;;;;;;8.05;3.88;;;;;;;13.48;100.00;100903.44;5068546;28;20028;-49
2022/10/23 08:31:07;;;;;;;10.90;4.20;;;;;;;13.51;100.00;100899.66;5061171;28;20020;-49
2022/10/23 08:33:32;;;;;;;10.40;4.15;;;;;;;13.54;100.00;100899.41;5067437;28;20028;-48
2022/10/23 08:35:58;;;;;;;7.07;4.38;;;;;;;13.58;100.00;100897.31;5059602;28;20024;-51
2022/10/23 08:38:23;;;;;;;9.15;4.70;;;;;;;13.59;100.00;100896.31;5063124;28;20508;-50
2022/10/23 08:40:48;;;;;;;11.15;4.03;;;;;;;13.60;100.00;100890.81;5067008;28;20025;-50
2022/10/23 08:43:36;;;;;;;11.43;4.10;;;;;;;13.62;100.00;100883.56;5068464;28;20029;-50
2022/10/23 08:46:11;;;;;;;14.32;4.20;;;;;;;13.65;100.00;100882.41;5063207;28;20035;-53
2022/10/23 08:48:55;;;;;;;8.60;4.32;;;;;;;13.66;100.00;100879.63;5064478;28;20025;-52
2022/10/23 08:51:27;;;;;;;11.90;4.63;;;;;;;13.68;100.00;100884.81;5059125;28;20033;-52
2022/10/23 08:54:05;;;;;;;9.55;4.30;;;;;;;13.72;100.00;100880.03;5061826;28;20028;-51
2022/10/23 08:56:33;;;;;;;8.63;4.05;;;;;;;13.72;100.00;100878.22;5055603;28;20439;-50
2022/10/23 08:59:27;;;;;;;11.63;4.68;;;;;;;13.79;100.00;100878.50;5050858;28;20044;-50
2022/10/23 09:02:13;;;;;;;7.60;4.43;;;;;;;13.80;100.00;100873.03;5055359;28;20051;-52
2022/10/23 09:04:42;;;;;;;7.32;3.92;;;;;;;13.80;100.00;100865.03;5057626;28;20044;-48
2022/10/23 09:07:35;;;;;;;8.63;4.07;;;;;;;13.79;100.00;100851.81;5063064;28;20101;-51
2022/10/23 09:10:16;;;;;;;10.55;4.20;;;;;;;13.86;100.00;100853.81;5061289;28;20025;-52
2022/10/23 09:12:42;;;;;;;9.60;4.35;;;;;;;13.90;100.00;100848.19;5064763;28;20035;-51
2022/10/23 09:15:29;;;;;;;8.25;4.32;;;;;;;13.90;100.00;100842.84;5042330;28;20016;-51
2022/10/23 09:18:06;;;;;;;11.30;4.80;;;;;;;13.99;100.00;100847.34;5064214;28;20036;-50
2022/10/23 09:20:33;;;;;;;8.73;4.28;;;;;;;14.03;100.00;100843.41;5069060;28;20103;-49
2022/10/23 09:23:22;;;;;;;9.43;4.50;;;;;;;14.06;100.00;100835.97;5056234;28;20028;-51
2022/10/23 09:25:50;;;;;;;;;;;;;;;14.14;100.00;100839.75;5062242;28;20431;-49
2022/10/23 09:28:26;;;;;;;8.85;3.97;;;;;;;14.11;99.87;100824.88;5048668;28;19904;-49
2022/10/23 09:30:52;;;;;;;13.32;4.47;;;;;;;14.16;99.75;100832.47;5052493;28;20120;-52
2022/10/23 09:33:22;;;;;;;10.35;4.30;;;;;;;14.18;99.57;100822.47;5056860;28;20025;-50
2022/10/23 09:36:01;;;;;;;8.02;4.10;;;;;;;14.21;99.86;100819.53;5059326;28;20037;-52
2022/10/23 09:38:34;;;;;;;11.32;4.53;;;;;;;14.21;99.47;100808.84;5060427;28;20086;-51
2022/10/23 09:41:10;;;;;;;7.28;3.92;;;;;;;14.22;99.27;100798.00;5047954;28;20037;-52
2022/10/23 09:43:35;;;;;;;8.48;4.43;;;;;;;14.25;99.40;100805.75;5048588;28;20470;-51
2022/10/23 09:46:04;;;;;;;8.32;3.85;;;;;;;14.30;99.27;100801.78;5051833;28;20021;-50
2022/10/23 09:48:30;;;;;;;9.32;4.22;;;;;;;14.32;98.68;100811.38;5050736;28;20036;-52
2022/10/23 09:51:02;;;;;;;7.75;4.20;;;;;;;14.35;98.88;100800.34;5047518;28;20013;-52
2022/10/23 09:53:34;;;;;;;9.20;4.70;;;;;;;14.37;98.52;100801.09;5039846;28;20033;-51
2022/10/23 09:56:03;;;;;;;8.10;4.20;;;;;;;14.40;98.56;100790.09;5052292;28;20455;-52
2022/10/23 09:58:33;;;;;;;;;;;;;;;14.48;99.80;100789.38;5052016;28;20049;-51
2022/10/23 10:00:58;;;;;;;8.23;4.03;;;;;;;14.49;98.52;100785.72;5050292;28;19968;-50
2022/10/23 10:03:24;;;;;;;11.43;4.63;;;;;;;14.50;98.83;100778.53;5031764;28;20605;-50
2022/10/23 10:06:01;;;;;;;8.00;4.30;;;;;;;14.47;99.11;100766.34;5049346;28;20095;-50
2022/10/23 10:08:34;;;;;;;7.47;4.60;;;;;;;14.54;98.60;100764.75;5060165;28;20029;-53
2022/10/23 10:11:28;;;;;;;9.13;4.22;;;;;;;14.59;98.33;100759.84;5053323;28;20056;-51
2022/10/23 10:14:10;;;;;;;13.18;4.28;;;;;;;14.60;98.31;100744.63;5056215;28;20074;-51
2022/10/23 10:16:50;;;;;;;7.07;4.03;;;;;;;14.64;98.30;100746.03;5057313;28;20036;-52
2022/10/23 10:19:39;;;;;;;7.70;3.88;;;;;;;14.68;97.65;100747.41;5055618;28;20036;-50
2022/10/23 10:22:13;;;;;;;;;;;;;;;14.73;98.82;100734.44;5048770;28;20056;-52
2022/10/23 10:25:07;;;;;;;9.85;3.92;;;;;;;14.75;98.04;100728.97;5051674;28;19916;-51
2022/10/23 10:27:43;;;;;;;9.68;4.00;;;;;;;14.78;96.99;100737.53;5053816;28;20056;-50
2022/10/23 10:30:18;;;;;;;7.50;3.60;;;;;;;14.83;96.65;100744.28;5044689;28;20047;-50
2022/10/23 10:33:13;;;;;;;6.68;3.63;;;;;;;14.88;96.26;100748.19;5054333;28;20021;-51
2022/10/23 10:35:56;;;;;;;6.78;3.17;;;;;;;14.92;96.30;100741.56;5052978;28;20028;-54
2022/10/23 10:38:49;;;;;;;9.63;4.10;;;;;;;14.95;95.50;100724.34;5052265;28;20114;-51
2022/10/23 10:41:35;;;;;;;9.23;3.38;;;;;;;15.07;95.22;100733.88;5054585;28;20035;-53
2022/10/23 10:44:39;;;;;;;6.35;3.10;;;;;;;15.15;95.33;100727.75;5054585;28;20063;-51
2022/10/23 10:47:20;;;;;;;6.07;3.10;;;;;;;15.23;94.71;100725.19;5051629;28;20029;-54
2022/10/23 10:49:51;;;;;;;9.30;2.75;;;;;;;15.33;94.15;100725.13;5050504;28;20049;-53
2022/10/23 10:52:28;;;;;;;7.03;2.92;;;;;;;15.41;94.22;100713.66;5052479;28;20095;-50
2022/10/23 10:55:09;;;;;;;8.45;3.38;;;;;;;15.51;94.00;100711.75;5052617;28;20060;-53
2022/10/23 10:57:42;;;;;;;7.20;3.25;;;;;;;15.59;93.48;100705.59;5051629;28;20032;-53
2022/10/23 11:00:28;;;;;;;9.48;3.17;;;;;;;15.70;93.89;100695.53;5056538;28;20055;-50
2022/10/23 11:03:01;;;;;;;4.43;3.20;;;;;;;15.80;92.63;100711.50;5052763;28;20036;-52
2022/10/23 11:05:33;;;;;;;9.52;3.50;;;;;;;15.90;92.64;100706.94;5054898;28;20051;-52
2022/10/23 11:08:32;;;;;;;6.15;3.25;;;;;;;15.97;92.12;100709.81;5060541;28;20040;-52
2022/10/23 11:11:00;;;;;;;;;;;;;;;16.05;94.26;100704.53;5066138;28;20095;-52
2022/10/23 11:13:30;;;;;;;7.18;3.25;;;;;;;16.09;89.98;100692.50;5058746;28;20409;-48
2022/10/23 11:16:00;;;;;;;11.55;3.70;;;;;;;16.15;89.84;100687.50;5059939;28;20112;-53
2022/10/23 11:18:28;;;;;;;9.65;3.30;;;;;;;16.21;89.48;100686.88;5057960;28;20071;-52
2022/10/23 11:21:29;;;;;;;5.25;3.28;;;;;;;16.31;91.34;100702.84;5054498;28;20043;-50
2022/10/23 11:24:10;;;;;;;7.05;3.22;;;;;;;16.38;88.40;100688.63;5047902;28;20021;-52
2022/10/23 11:26:54;;;;;;;8.73;3.05;;;;;;;16.47;90.48;100678.81;5054782;28;20090;-52
2022/10/23 11:29:35;;;;;;;5.95;2.70;;;;;;;16.54;88.50;100673.66;5055435;28;20033;-51
2022/10/23 11:32:14;;;;;;;7.97;2.97;;;;;;;16.58;87.72;100675.81;5054866;28;20083;-52